Aviation Digital Data Service (ADDS)

Output produced by METARs form (0006 UTC 26 June 2017)
found at http://aviationweather.gov/adds/metars/
 
KAUG 252320Z 2600/2624 29005KT P6SM FEW080 BKN120